createdAt,value
2019-02-19T00:00:53.210Z,18.23
2019-02-19T00:03:22.553Z,12.57
2019-02-19T00:05:51.843Z,15.53
2019-02-19T00:08:21.167Z,10.57
2019-02-19T00:10:50.538Z,10.53
2019-02-19T00:13:19.959Z,13.10
2019-02-19T00:15:49.417Z,14.67
2019-02-19T00:18:18.689Z,11.70
2019-02-19T00:20:48.927Z,12.87
2019-02-19T00:23:18.306Z,13.80
2019-02-19T00:25:47.616Z,13.73
2019-02-19T00:28:16.962Z,10.43
2019-02-19T00:30:46.266Z,14.40
2019-02-19T00:33:15.601Z,10.17
2019-02-19T00:35:44.902Z,13.83
2019-02-19T00:38:14.225Z,12.83
2019-02-19T00:40:43.589Z,11.97
2019-02-19T00:43:12.896Z,13.57
2019-02-19T00:45:42.277Z,11.43
2019-02-19T00:48:11.568Z,9.17
2019-02-19T00:50:40.897Z,14.13
2019-02-19T00:53:10.178Z,11.30
2019-02-19T00:55:39.581Z,12.47
2019-02-19T00:58:08.984Z,8.10
2019-02-19T01:00:38.318Z,10.80
2019-02-19T01:03:07.623Z,14.03
2019-02-19T01:05:36.959Z,11.90
2019-02-19T01:08:06.244Z,11.17
2019-02-19T01:10:35.550Z,12.97
2019-02-19T01:13:04.827Z,12.37
2019-02-19T01:15:34.153Z,8.87
2019-02-19T01:18:03.460Z,14.60
2019-02-19T01:20:32.771Z,15.47
2019-02-19T01:23:02.103Z,16.70
2019-02-19T01:25:31.413Z,14.33
2019-02-19T01:28:00.732Z,11.87
2019-02-19T01:30:30.046Z,14.90
2019-02-19T01:32:59.409Z,13.60
2019-02-19T01:35:28.706Z,12.10
2019-02-19T01:37:58.057Z,14.57
2019-02-19T01:40:27.347Z,15.77
2019-02-19T01:42:56.688Z,14.43
2019-02-19T01:45:33.686Z,10.37
2019-02-19T01:47:57.002Z,16.03
2019-02-19T01:50:26.401Z,11.47
2019-02-19T01:52:55.734Z,14.67
2019-02-19T01:55:25.050Z,14.07
2019-02-19T01:57:54.340Z,11.80
2019-02-19T02:00:23.676Z,15.30
2019-02-19T02:02:52.976Z,14.97
2019-02-19T02:05:22.315Z,10.30
2019-02-19T02:07:51.596Z,11.83
2019-02-19T02:10:20.904Z,10.90
2019-02-19T02:12:50.253Z,12.00
2019-02-19T02:15:19.617Z,14.17
2019-02-19T02:17:48.941Z,15.47
2019-02-19T02:20:18.286Z,12.97
2019-02-19T02:22:47.653Z,15.10
2019-02-19T02:25:16.942Z,8.17
2019-02-19T02:27:46.319Z,12.33
2019-02-19T02:30:15.648Z,13.53
2019-02-19T02:32:44.949Z,15.17
2019-02-19T02:35:14.280Z,13.93
2019-02-19T02:37:43.599Z,18.50
2019-02-19T02:40:12.910Z,10.07
2019-02-19T02:42:42.242Z,11.60
2019-02-19T02:45:11.520Z,9.53
2019-02-19T02:47:40.877Z,8.30
2019-02-19T02:50:10.222Z,13.20
2019-02-19T02:52:39.539Z,11.30
2019-02-19T02:55:08.852Z,12.27
2019-02-19T02:57:38.182Z,12.50
2019-02-19T03:00:08.247Z,15.30
2019-02-19T03:02:37.542Z,13.47
2019-02-19T03:05:06.852Z,10.87
2019-02-19T03:07:41.793Z,13.63
2019-02-19T03:10:11.114Z,13.10
2019-02-19T03:12:40.455Z,12.03
2019-02-19T03:15:10.208Z,12.10
2019-02-19T03:17:39.526Z,10.33
2019-02-19T03:20:08.847Z,15.50
2019-02-19T03:22:38.267Z,16.43
2019-02-19T03:25:07.574Z,9.80
2019-02-19T03:27:36.853Z,16.70
2019-02-19T03:30:07.646Z,11.07
2019-02-19T03:32:36.984Z,9.93
2019-02-19T03:35:06.435Z,14.17
2019-02-19T03:37:35.754Z,10.93
2019-02-19T03:40:07.354Z,13.27
2019-02-19T03:42:36.167Z,14.67
2019-02-19T03:45:06.408Z,12.60
2019-02-19T03:47:35.685Z,14.10
2019-02-19T03:50:05.831Z,11.77
2019-02-19T03:52:35.170Z,15.67
2019-02-19T03:55:04.579Z,15.57
2019-02-19T03:57:33.970Z,11.67
2019-02-19T04:00:03.327Z,17.53
2019-02-19T04:02:32.690Z,15.70
2019-02-19T04:05:02.046Z,11.50
2019-02-19T04:07:31.393Z,11.70
2019-02-19T04:10:00.672Z,11.10
2019-02-19T04:12:29.979Z,12.57
2019-02-19T04:14:59.308Z,9.80
2019-02-19T04:17:28.649Z,11.07
2019-02-19T04:19:57.975Z,10.10
2019-02-19T04:22:27.253Z,11.17
2019-02-19T04:24:56.614Z,11.60
2019-02-19T04:27:25.928Z,13.13
2019-02-19T04:29:55.253Z,13.67
2019-02-19T04:32:24.532Z,15.33
2019-02-19T04:34:53.830Z,12.57
2019-02-19T04:37:23.120Z,11.50
2019-02-19T04:39:52.470Z,13.37
2019-02-19T04:42:22.064Z,12.63
2019-02-19T04:44:51.393Z,10.90
2019-02-19T04:47:20.733Z,13.83
2019-02-19T04:49:50.024Z,12.20
2019-02-19T04:52:19.352Z,15.63
2019-02-19T04:54:49.755Z,10.47
2019-02-19T04:57:19.094Z,9.50
2019-02-19T04:59:48.412Z,12.10
2019-02-19T05:02:17.723Z,9.53
2019-02-19T05:04:47.065Z,13.93
2019-02-19T05:07:16.365Z,11.33
2019-02-19T05:09:45.711Z,13.77
2019-02-19T05:12:15.058Z,10.60
2019-02-19T05:14:44.351Z,11.30
2019-02-19T05:17:13.785Z,12.53
2019-02-19T05:19:43.065Z,10.90
2019-02-19T05:22:12.442Z,14.50
2019-02-19T05:24:41.742Z,13.03
2019-02-19T05:27:11.070Z,14.23
2019-02-19T05:29:40.434Z,14.50
2019-02-19T05:32:09.703Z,11.50
2019-02-19T05:34:38.987Z,15.13
2019-02-19T05:37:08.287Z,16.20
2019-02-19T05:39:37.630Z,14.57
2019-02-19T05:42:06.959Z,14.90
2019-02-19T05:44:36.242Z,14.70
2019-02-19T05:47:05.548Z,10.30
2019-02-19T05:49:34.926Z,15.33
2019-02-19T05:52:04.312Z,14.43
2019-02-19T05:54:33.608Z,13.30
2019-02-19T05:57:02.961Z,14.47
2019-02-19T05:59:32.621Z,8.37
2019-02-19T06:02:02.016Z,18.83
2019-02-19T06:04:31.358Z,19.10
2019-02-19T06:07:00.712Z,18.50
2019-02-19T06:09:30.003Z,16.67
2019-02-19T06:11:59.346Z,15.87
2019-02-19T06:14:28.630Z,15.17
2019-02-19T06:16:58.825Z,17.33
2019-02-19T06:19:28.319Z,15.73
2019-02-19T06:21:57.654Z,14.03
2019-02-19T06:24:26.990Z,16.93
2019-02-19T06:26:59.561Z,19.37
2019-02-19T06:29:28.911Z,18.20
2019-02-19T06:31:58.219Z,18.93
2019-02-19T06:34:27.565Z,13.13
2019-02-19T06:36:56.889Z,18.87
2019-02-19T06:39:26.244Z,18.80
2019-02-19T06:41:55.518Z,19.90
2019-02-19T06:44:24.851Z,13.37
2019-02-19T06:46:54.181Z,20.33
2019-02-19T06:49:23.534Z,19.50
2019-02-19T06:51:52.894Z,14.37
2019-02-19T06:54:22.245Z,21.00
2019-02-19T06:56:51.519Z,15.07
2019-02-19T06:59:20.873Z,16.77
2019-02-19T07:02:13.329Z,18.30
2019-02-19T07:04:48.245Z,16.30
2019-02-19T07:07:17.536Z,17.90
2019-02-19T07:09:46.832Z,18.87
2019-02-19T07:12:16.181Z,27.57
2019-02-19T07:14:45.560Z,18.67
2019-02-19T07:17:15.947Z,21.07
2019-02-19T07:19:45.437Z,23.43
2019-02-19T07:22:14.728Z,17.57
2019-02-19T07:24:44.077Z,21.00
2019-02-19T07:27:13.362Z,22.13
2019-02-19T07:29:42.701Z,22.93
2019-02-19T07:32:11.997Z,23.03
2019-02-19T07:34:41.263Z,25.97
2019-02-19T07:37:10.601Z,22.47
2019-02-19T07:39:39.891Z,22.77
2019-02-19T07:42:09.176Z,27.10
2019-02-19T07:44:38.506Z,22.93
2019-02-19T07:47:07.819Z,22.10
2019-02-19T07:49:37.129Z,23.67
2019-02-19T07:52:06.514Z,20.77
2019-02-19T07:54:35.845Z,25.70
2019-02-19T07:57:05.176Z,28.73
2019-02-19T07:59:34.521Z,21.80
2019-02-19T08:02:03.854Z,26.53
2019-02-19T08:04:33.166Z,23.00
2019-02-19T08:07:02.504Z,25.00
2019-02-19T08:09:31.807Z,25.23
2019-02-19T08:12:01.206Z,24.93
2019-02-19T08:14:30.497Z,26.10
2019-02-19T08:16:59.851Z,32.43
2019-02-19T08:19:29.267Z,24.87
2019-02-19T08:21:58.615Z,28.93
2019-02-19T08:24:27.947Z,30.77
2019-02-19T08:26:57.283Z,29.93
2019-02-19T08:29:26.626Z,26.67
2019-02-19T08:31:55.942Z,33.07
2019-02-19T08:34:25.246Z,29.87
2019-02-19T08:36:54.604Z,34.00
2019-02-19T08:39:23.934Z,29.90
2019-02-19T08:41:53.279Z,31.40
2019-02-19T08:44:22.594Z,28.93
2019-02-19T08:46:51.994Z,21.03
2019-02-19T08:49:24.591Z,33.53
2019-02-19T08:51:56.035Z,32.83
2019-02-19T08:54:24.948Z,31.40
2019-02-19T08:56:54.345Z,28.97
2019-02-19T08:59:23.742Z,35.37
2019-02-19T09:01:53.155Z,37.23
2019-02-19T09:04:22.523Z,30.97
2019-02-19T09:06:51.916Z,33.47
2019-02-19T09:09:21.187Z,33.97
2019-02-19T09:11:50.503Z,40.63
2019-02-19T09:14:19.884Z,35.93
2019-02-19T09:16:49.179Z,40.67
2019-02-19T09:19:18.500Z,34.47
2019-02-19T09:21:47.879Z,28.57
2019-02-19T09:24:17.231Z,32.37
2019-02-19T09:26:46.626Z,29.07
2019-02-19T09:29:16.003Z,22.73
2019-02-19T09:31:45.332Z,26.67
2019-02-19T09:34:14.664Z,30.73
2019-02-19T09:36:44.026Z,23.53
2019-02-19T09:39:13.359Z,22.73
2019-02-19T09:41:42.729Z,28.80
2019-02-19T09:44:12.084Z,23.43
2019-02-19T09:46:41.501Z,22.47
2019-02-19T09:49:10.827Z,24.57
2019-02-19T09:51:40.249Z,22.60
2019-02-19T09:54:09.626Z,23.33
2019-02-19T09:56:39.051Z,27.13
2019-02-19T09:59:08.372Z,23.53
2019-02-19T10:01:37.767Z,26.93
2019-02-19T10:04:07.124Z,18.93
2019-02-19T10:06:36.505Z,21.60
2019-02-19T10:09:08.243Z,20.60
2019-02-19T10:11:37.580Z,25.00
2019-02-19T10:14:06.949Z,22.77
2019-02-19T10:16:41.638Z,18.70
2019-02-19T10:19:07.339Z,21.73
2019-02-19T10:21:36.649Z,20.07
2019-02-19T10:24:06.002Z,16.47
2019-02-19T10:26:35.382Z,17.67
2019-02-19T10:29:04.743Z,19.47
2019-02-19T10:31:34.089Z,17.23
2019-02-19T10:34:03.430Z,16.17
2019-02-19T10:36:32.784Z,19.50
2019-02-19T10:39:02.165Z,14.53
2019-02-19T10:41:31.512Z,17.63
2019-02-19T10:44:00.895Z,12.70
2019-02-19T10:46:30.365Z,17.13
2019-02-19T10:48:59.719Z,17.80
2019-02-19T10:51:29.035Z,12.10
2019-02-19T10:53:58.440Z,18.70
2019-02-19T10:56:27.786Z,15.00
2019-02-19T10:58:57.102Z,13.57
2019-02-19T11:01:26.466Z,10.77
2019-02-19T11:03:55.809Z,15.20
2019-02-19T11:06:25.210Z,15.53
2019-02-19T11:08:55.175Z,16.80
2019-02-19T11:11:24.559Z,15.60
2019-02-19T11:13:53.884Z,17.93
2019-02-19T11:16:23.211Z,18.60
2019-02-19T11:18:52.505Z,13.60
2019-02-19T11:21:21.819Z,15.87
2019-02-19T11:23:51.139Z,11.33
2019-02-19T11:26:20.460Z,16.47
2019-02-19T11:28:49.778Z,15.87
2019-02-19T11:31:19.147Z,15.20
2019-02-19T11:33:48.527Z,21.60
2019-02-19T11:36:17.927Z,14.87
2019-02-19T11:38:47.257Z,9.70
2019-02-19T11:41:16.642Z,14.73
2019-02-19T11:43:45.991Z,14.07
2019-02-19T11:46:15.430Z,16.10
2019-02-19T11:48:44.755Z,17.07
2019-02-19T11:51:14.096Z,12.23
2019-02-19T11:53:43.435Z,15.90
2019-02-19T11:56:12.796Z,15.57
2019-02-19T11:58:42.113Z,16.33
2019-02-19T12:01:11.486Z,14.40
2019-02-19T12:03:40.838Z,11.93
2019-02-19T12:06:10.225Z,13.30
2019-02-19T12:08:39.598Z,15.17
2019-02-19T12:11:08.949Z,16.17
2019-02-19T12:13:38.260Z,11.30
2019-02-19T12:16:07.669Z,18.33
2019-02-19T12:18:45.619Z,13.97
2019-02-19T12:21:07.976Z,15.20
2019-02-19T12:23:37.345Z,15.10
2019-02-19T12:26:06.658Z,14.63
2019-02-19T12:28:35.995Z,12.03
2019-02-19T12:31:05.337Z,12.90
2019-02-19T12:33:34.643Z,11.40
2019-02-19T12:36:04.019Z,12.43
2019-02-19T12:38:33.338Z,13.07
2019-02-19T12:41:02.675Z,15.80
2019-02-19T12:43:32.045Z,17.17
2019-02-19T12:46:01.428Z,17.27
2019-02-19T12:48:30.799Z,15.40
2019-02-19T12:51:00.174Z,14.00
2019-02-19T12:53:29.495Z,14.87
2019-02-19T12:55:58.874Z,13.00
2019-02-19T12:58:28.179Z,11.70
2019-02-19T13:00:57.532Z,11.07
2019-02-19T13:03:45.981Z,10.80
2019-02-19T13:06:15.348Z,8.73
2019-02-19T13:08:44.674Z,11.87
2019-02-19T13:11:14.153Z,11.13
2019-02-19T13:13:43.466Z,10.33
2019-02-19T13:16:12.829Z,11.33
2019-02-19T13:18:42.167Z,16.13
2019-02-19T13:21:11.503Z,10.40
2019-02-19T13:23:40.762Z,12.20
2019-02-19T13:26:10.107Z,11.60
2019-02-19T13:28:39.467Z,9.53
2019-02-19T13:31:08.818Z,13.50
2019-02-19T13:33:38.170Z,11.83
2019-02-19T13:36:07.788Z,11.23
2019-02-19T13:38:37.143Z,10.93
2019-02-19T13:41:06.514Z,12.50
2019-02-19T13:43:35.929Z,11.00
2019-02-19T13:46:05.334Z,13.80
2019-02-19T13:48:36.595Z,13.67
2019-02-19T13:51:05.976Z,7.97
2019-02-19T13:53:52.813Z,9.30
2019-02-19T13:56:22.131Z,7.33
2019-02-19T13:58:51.457Z,10.80
2019-02-19T14:01:20.836Z,9.47
2019-02-19T14:03:50.183Z,5.93
2019-02-19T14:06:19.480Z,8.30
2019-02-19T14:08:48.828Z,6.00
2019-02-19T14:11:18.119Z,8.87
2019-02-19T14:13:55.179Z,10.50
2019-02-19T14:16:29.083Z,8.93
2019-02-19T14:19:07.213Z,8.33
2019-02-19T14:22:01.791Z,12.67
2019-02-19T14:24:50.296Z,9.27
2019-02-19T14:27:26.726Z,9.67
2019-02-19T14:30:27.172Z,9.73
2019-02-19T14:33:15.398Z,6.27
2019-02-19T14:36:02.279Z,10.73
2019-02-19T14:38:49.419Z,8.43
2019-02-19T14:41:43.526Z,16.27
2019-02-19T14:44:30.624Z,8.47
2019-02-19T14:47:21.795Z,6.07
2019-02-19T14:50:10.054Z,9.60
2019-02-19T14:53:07.516Z,11.47
2019-02-19T14:56:14.101Z,9.27
2019-02-19T14:59:14.783Z,4.87
2019-02-19T15:02:05.935Z,3.63
2019-02-19T15:04:54.302Z,11.03
2019-02-19T15:08:03.738Z,8.60
2019-02-19T15:11:00.934Z,9.47
2019-02-19T15:13:58.208Z,8.00
2019-02-19T15:16:45.422Z,9.63
2019-02-19T15:19:29.327Z,5.70
2019-02-19T15:22:23.075Z,9.97
2019-02-19T15:25:11.359Z,8.93
2019-02-19T15:28:02.454Z,10.73
2019-02-19T15:30:50.222Z,8.50
2019-02-19T15:33:39.168Z,7.30
2019-02-19T15:36:21.706Z,9.53
2019-02-19T15:39:25.333Z,6.43
2019-02-19T15:42:19.440Z,9.93
2019-02-19T15:45:13.511Z,10.13
2019-02-19T15:48:04.619Z,4.53
2019-02-19T15:50:51.771Z,6.47
2019-02-19T15:53:45.862Z,5.73
2019-02-19T15:56:44.667Z,6.73
2019-02-19T15:59:31.963Z,8.93
2019-02-19T16:02:08.922Z,11.20
2019-02-19T16:05:02.930Z,9.20
2019-02-19T16:07:57.137Z,4.93
2019-02-19T16:10:45.351Z,5.17
2019-02-19T16:13:25.425Z,10.43
2019-02-19T16:16:13.719Z,9.77
2019-02-19T16:19:14.060Z,8.60
2019-02-19T16:22:08.422Z,5.00
2019-02-19T16:24:55.472Z,6.90
2019-02-19T16:27:52.669Z,5.40
2019-02-19T16:30:43.934Z,7.90
2019-02-19T16:33:47.675Z,5.93
2019-02-19T16:36:25.659Z,3.83
2019-02-19T16:39:05.575Z,6.73
2019-02-19T16:41:50.364Z,9.70
2019-02-19T16:44:47.562Z,5.63
2019-02-19T16:47:32.609Z,8.30
2019-02-19T16:50:22.085Z,5.90
2019-02-19T16:53:05.967Z,5.10
2019-02-19T16:55:57.277Z,10.23
2019-02-19T16:58:35.411Z,8.80
2019-02-19T17:01:22.397Z,7.03
2019-02-19T17:04:16.595Z,6.97
2019-02-19T17:06:52.010Z,8.17
2019-02-19T17:09:32.011Z,8.03
2019-02-19T17:12:32.260Z,5.07
2019-02-19T17:15:27.041Z,9.87
2019-02-19T17:18:15.314Z,7.23
2019-02-19T17:21:02.254Z,6.83
2019-02-19T17:23:59.741Z,6.63
2019-02-19T17:26:46.709Z,4.87
2019-02-19T17:29:41.005Z,6.43
2019-02-19T17:32:47.672Z,9.60
2019-02-19T17:35:24.517Z,6.67
2019-02-19T17:38:14.865Z,7.23
2019-02-19T17:41:18.078Z,5.97
2019-02-19T17:44:09.171Z,6.37
2019-02-19T17:47:14.414Z,7.00
2019-02-19T17:50:02.825Z,6.07
2019-02-19T17:52:45.878Z,7.00
2019-02-19T17:55:43.683Z,7.90
2019-02-19T17:58:31.976Z,7.37
2019-02-19T18:01:18.974Z,7.23
2019-02-19T18:04:22.633Z,6.07
2019-02-19T18:07:09.857Z,6.97
2019-02-19T18:10:01.187Z,6.93
2019-02-19T18:12:55.331Z,8.10
2019-02-19T18:15:44.295Z,8.17
2019-02-19T18:18:32.547Z,11.43
2019-02-19T18:21:01.943Z,11.83
2019-02-19T18:23:31.294Z,12.40
2019-02-19T18:26:00.673Z,8.17
2019-02-19T18:28:30.107Z,8.83
2019-02-19T18:30:59.790Z,8.30
2019-02-19T18:33:29.243Z,9.77
2019-02-19T18:35:58.658Z,13.17
2019-02-19T18:38:27.981Z,11.73
2019-02-19T18:40:57.375Z,14.23
2019-02-19T18:43:26.776Z,9.77
2019-02-19T18:45:56.123Z,9.80
2019-02-19T18:48:25.561Z,14.07
2019-02-19T18:50:58.533Z,10.33
2019-02-19T18:53:25.959Z,11.13
2019-02-19T18:55:55.331Z,11.27
2019-02-19T18:58:24.661Z,8.77
2019-02-19T19:00:54.021Z,13.60
2019-02-19T19:03:23.337Z,11.80
2019-02-19T19:05:52.683Z,14.37
2019-02-19T19:08:22.137Z,9.47
2019-02-19T19:10:51.682Z,9.90
2019-02-19T19:13:21.053Z,10.23
2019-02-19T19:15:50.369Z,11.97
2019-02-19T19:18:19.734Z,9.33
2019-02-19T19:20:49.140Z,8.97
2019-02-19T19:23:18.501Z,9.33
2019-02-19T19:25:47.840Z,7.30
2019-02-19T19:28:17.215Z,7.27
2019-02-19T19:30:46.540Z,5.57
2019-02-19T19:33:15.876Z,13.97
2019-02-19T19:35:45.279Z,8.47
2019-02-19T19:38:14.586Z,6.00
2019-02-19T19:40:43.920Z,9.93
2019-02-19T19:43:13.329Z,8.70
2019-02-19T19:45:42.645Z,9.30
2019-02-19T19:48:11.985Z,5.30
2019-02-19T19:50:41.402Z,4.03
2019-02-19T19:53:10.742Z,5.50
2019-02-19T19:55:40.106Z,5.17
2019-02-19T19:58:09.426Z,4.53
2019-02-19T20:00:38.825Z,8.47
2019-02-19T20:03:08.099Z,6.67
2019-02-19T20:05:38.529Z,5.80
2019-02-19T20:08:07.886Z,5.60
2019-02-19T20:10:37.230Z,5.03
2019-02-19T20:13:06.649Z,5.73
2019-02-19T20:15:35.984Z,8.57
2019-02-19T20:18:05.387Z,4.33
2019-02-19T20:20:34.713Z,9.20
2019-02-19T20:23:04.074Z,6.40
2019-02-19T20:25:33.385Z,5.03
2019-02-19T20:28:02.912Z,4.53
2019-02-19T20:30:32.256Z,6.27
2019-02-19T20:33:01.610Z,7.67
2019-02-19T20:35:30.945Z,9.43
2019-02-19T20:38:00.366Z,5.63
2019-02-19T20:40:29.643Z,7.27
2019-02-19T20:42:59.062Z,7.43
2019-02-19T20:45:28.370Z,9.33
2019-02-19T20:47:59.763Z,5.93
2019-02-19T20:50:28.775Z,6.47
2019-02-19T20:52:58.112Z,10.47
2019-02-19T20:55:36.549Z,6.17
2019-02-19T20:57:58.482Z,7.87
2019-02-19T21:00:27.830Z,7.80
2019-02-19T21:02:57.209Z,11.17
2019-02-19T21:05:26.608Z,6.10
2019-02-19T21:07:55.923Z,9.43
2019-02-19T21:10:25.262Z,10.83
2019-02-19T21:12:54.609Z,5.97
2019-02-19T21:15:23.914Z,11.40
2019-02-19T21:17:53.254Z,6.43
2019-02-19T21:20:22.569Z,7.47
2019-02-19T21:22:52.018Z,6.43
2019-02-19T21:25:21.382Z,5.93
2019-02-19T21:27:51.820Z,4.57
2019-02-19T21:30:21.157Z,7.07
2019-02-19T21:32:53.552Z,5.10
2019-02-19T21:35:22.968Z,6.90
2019-02-19T21:37:52.323Z,7.50
2019-02-19T21:40:21.674Z,5.03
2019-02-19T21:42:51.004Z,6.50
2019-02-19T21:45:20.349Z,5.33
2019-02-19T21:47:49.703Z,6.00
2019-02-19T21:50:22.011Z,6.37
2019-02-19T21:52:51.435Z,7.13
2019-02-19T21:55:20.743Z,4.37
2019-02-19T21:57:50.161Z,3.30
2019-02-19T22:00:20.532Z,5.83
2019-02-19T22:02:49.889Z,7.83
2019-02-19T22:05:19.200Z,3.47
2019-02-19T22:07:48.558Z,3.10
2019-02-19T22:10:17.846Z,4.60
2019-02-19T22:12:47.162Z,3.37
2019-02-19T22:15:16.479Z,6.30
2019-02-19T22:17:45.860Z,3.93
2019-02-19T22:20:31.210Z,3.37
2019-02-19T22:23:00.523Z,6.63
2019-02-19T22:25:29.828Z,1.97
2019-02-19T22:27:59.124Z,5.43
2019-02-19T22:30:28.473Z,7.70
2019-02-19T22:32:57.809Z,5.23
2019-02-19T22:35:27.119Z,6.73
2019-02-19T22:38:01.606Z,8.67
2019-02-19T22:40:34.660Z,9.10
2019-02-19T22:43:09.605Z,8.53
2019-02-19T22:45:42.584Z,8.00
2019-02-19T22:48:11.883Z,9.10
2019-02-19T22:50:41.182Z,6.80
2019-02-19T22:53:28.302Z,8.77
2019-02-19T22:56:03.153Z,7.97
2019-02-19T22:58:32.386Z,11.90
2019-02-19T23:01:17.065Z,14.20
2019-02-19T23:03:46.355Z,10.43
2019-02-19T23:06:15.702Z,10.40
2019-02-19T23:08:45.071Z,12.63
2019-02-19T23:11:14.416Z,7.00
2019-02-19T23:13:43.718Z,13.53
2019-02-19T23:16:13.018Z,13.80
2019-02-19T23:18:42.373Z,13.40
2019-02-19T23:21:11.735Z,12.97
2019-02-19T23:23:41.039Z,12.40
2019-02-19T23:26:10.354Z,13.77
2019-02-19T23:28:39.664Z,14.10
2019-02-19T23:31:08.950Z,12.87
2019-02-19T23:33:38.253Z,15.73
2019-02-19T23:36:30.757Z,14.37
2019-02-19T23:39:00.109Z,14.47
2019-02-19T23:41:29.431Z,12.63
2019-02-19T23:43:58.782Z,12.20
2019-02-19T23:46:28.094Z,19.50
2019-02-19T23:48:57.414Z,14.50
2019-02-19T23:51:26.715Z,16.27
2019-02-19T23:53:56.101Z,19.90
2019-02-19T23:56:25.452Z,10.73
2019-02-19T23:58:54.739Z,18.43
